sensor_id;sensor_type;location;lat;lon;timestamp;temperature;humidity
4566;DHT22;2295;51.050;14.608;2022-12-18T00:01:35;-5.50;99.90
4566;DHT22;2295;51.050;14.608;2022-12-18T00:04:18;-5.50;99.90
4566;DHT22;2295;51.050;14.608;2022-12-18T00:07:00;-5.50;99.90
4566;DHT22;2295;51.050;14.608;2022-12-18T00:09:30;-5.50;99.90
4566;DHT22;2295;51.050;14.608;2022-12-18T00:12:06;-5.60;99.90
4566;DHT22;2295;51.050;14.608;2022-12-18T00:14:44;-5.60;99.90
4566;DHT22;2295;51.050;14.608;2022-12-18T00:17:16;-5.60;99.90
4566;DHT22;2295;51.050;14.608;2022-12-18T00:19:48;-5.50;99.90
4566;DHT22;2295;51.050;14.608;2022-12-18T00:22:25;-5.60;99.90
4566;DHT22;2295;51.050;14.608;2022-12-18T00:27:56;-5.60;99.90
4566;DHT22;2295;51.050;14.608;2022-12-18T00:30:24;-5.60;99.90
4566;DHT22;2295;51.050;14.608;2022-12-18T00:32:53;-5.60;99.90
4566;DHT22;2295;51.050;14.608;2022-12-18T00:35:25;-5.70;99.90
4566;DHT22;2295;51.050;14.608;2022-12-18T00:38:01;-5.70;99.90
4566;DHT22;2295;51.050;14.608;2022-12-18T00:40:37;-5.70;99.90
4566;DHT22;2295;51.050;14.608;2022-12-18T00:43:15;-5.70;99.90
4566;DHT22;2295;51.050;14.608;2022-12-18T00:45:43;-5.70;99.90
4566;DHT22;2295;51.050;14.608;2022-12-18T00:48:20;-5.80;99.90
4566;DHT22;2295;51.050;14.608;2022-12-18T00:50:53;-5.80;99.90
4566;DHT22;2295;51.050;14.608;2022-12-18T00:53:23;-5.80;99.90
4566;DHT22;2295;51.050;14.608;2022-12-18T00:55:58;-5.80;99.90
4566;DHT22;2295;51.050;14.608;2022-12-18T00:58:26;-5.80;99.90
4566;DHT22;2295;51.050;14.608;2022-12-18T01:00:55;-5.80;99.90
4566;DHT22;2295;51.050;14.608;2022-12-18T01:03:24;-5.80;99.90
4566;DHT22;2295;51.050;14.608;2022-12-18T01:05:53;-5.80;99.90
4566;DHT22;2295;51.050;14.608;2022-12-18T01:08:27;-5.80;99.90
4566;DHT22;2295;51.050;14.608;2022-12-18T01:10:55;-5.90;99.90
4566;DHT22;2295;51.050;14.608;2022-12-18T01:13:32;-5.80;99.90
4566;DHT22;2295;51.050;14.608;2022-12-18T01:16:18;-5.80;99.90
4566;DHT22;2295;51.050;14.608;2022-12-18T01:18:53;-5.90;99.90
4566;DHT22;2295;51.050;14.608;2022-12-18T01:21:25;-5.80;99.90
4566;DHT22;2295;51.050;14.608;2022-12-18T01:23:58;-5.80;99.90
4566;DHT22;2295;51.050;14.608;2022-12-18T01:26:27;-5.80;99.90
4566;DHT22;2295;51.050;14.608;2022-12-18T01:29:02;-5.80;99.90
4566;DHT22;2295;51.050;14.608;2022-12-18T01:31:38;-5.80;99.90
4566;DHT22;2295;51.050;14.608;2022-12-18T01:34:13;-5.80;99.90
4566;DHT22;2295;51.050;14.608;2022-12-18T01:36:42;-5.80;99.90
4566;DHT22;2295;51.050;14.608;2022-12-18T01:39:21;-5.80;99.90
4566;DHT22;2295;51.050;14.608;2022-12-18T01:41:57;-5.90;99.90
4566;DHT22;2295;51.050;14.608;2022-12-18T01:45:00;-5.90;99.90
4566;DHT22;2295;51.050;14.608;2022-12-18T01:47:33;-6.00;99.90
4566;DHT22;2295;51.050;14.608;2022-12-18T01:50:09;-6.00;99.90
4566;DHT22;2295;51.050;14.608;2022-12-18T01:52:41;-6.00;99.90
4566;DHT22;2295;51.050;14.608;2022-12-18T01:55:27;-6.00;99.90
4566;DHT22;2295;51.050;14.608;2022-12-18T01:58:17;-5.90;99.90
4566;DHT22;2295;51.050;14.608;2022-12-18T02:01:05;-5.90;99.90
4566;DHT22;2295;51.050;14.608;2022-12-18T02:03:47;-5.90;99.90
4566;DHT22;2295;51.050;14.608;2022-12-18T02:06:36;-5.90;99.90
4566;DHT22;2295;51.050;14.608;2022-12-18T02:09:33;-5.90;99.90
4566;DHT22;2295;51.050;14.608;2022-12-18T02:12:21;-5.80;99.90
4566;DHT22;2295;51.050;14.608;2022-12-18T02:15:02;-5.90;99.90
4566;DHT22;2295;51.050;14.608;2022-12-18T02:17:55;-5.90;99.90
4566;DHT22;2295;51.050;14.608;2022-12-18T02:20:58;-6.00;99.90
4566;DHT22;2295;51.050;14.608;2022-12-18T02:23:54;-6.10;99.90
4566;DHT22;2295;51.050;14.608;2022-12-18T02:26:48;-6.20;99.90
4566;DHT22;2295;51.050;14.608;2022-12-18T02:29:52;-6.20;99.90
4566;DHT22;2295;51.050;14.608;2022-12-18T02:32:41;-6.20;99.90
4566;DHT22;2295;51.050;14.608;2022-12-18T02:35:34;-6.20;99.90
4566;DHT22;2295;51.050;14.608;2022-12-18T02:38:25;-6.20;99.90
4566;DHT22;2295;51.050;14.608;2022-12-18T02:41:14;-6.30;99.90
4566;DHT22;2295;51.050;14.608;2022-12-18T02:44:09;-6.30;99.90
4566;DHT22;2295;51.050;14.608;2022-12-18T02:47:10;-6.40;99.90
4566;DHT22;2295;51.050;14.608;2022-12-18T02:50:13;-6.40;99.90
4566;DHT22;2295;51.050;14.608;2022-12-18T02:53:10;-6.30;99.90
4566;DHT22;2295;51.050;14.608;2022-12-18T02:56:02;-6.30;99.90
4566;DHT22;2295;51.050;14.608;2022-12-18T02:58:36;-6.30;99.90
4566;DHT22;2295;51.050;14.608;2022-12-18T03:01:21;-6.30;99.90
4566;DHT22;2295;51.050;14.608;2022-12-18T03:03:56;-6.30;99.90
4566;DHT22;2295;51.050;14.608;2022-12-18T03:06:28;-6.40;99.90
4566;DHT22;2295;51.050;14.608;2022-12-18T03:09:04;-6.40;99.90
4566;DHT22;2295;51.050;14.608;2022-12-18T03:11:41;-6.50;99.90
4566;DHT22;2295;51.050;14.608;2022-12-18T03:14:37;-6.50;99.90
4566;DHT22;2295;51.050;14.608;2022-12-18T03:17:22;-6.60;99.90
4566;DHT22;2295;51.050;14.608;2022-12-18T03:20:22;-6.50;99.90
4566;DHT22;2295;51.050;14.608;2022-12-18T03:23:22;-6.60;99.90
4566;DHT22;2295;51.050;14.608;2022-12-18T03:26:17;-6.60;99.90
4566;DHT22;2295;51.050;14.608;2022-12-18T03:29:13;-6.60;99.90
4566;DHT22;2295;51.050;14.608;2022-12-18T03:32:03;-6.60;99.90
4566;DHT22;2295;51.050;14.608;2022-12-18T03:35:03;-6.60;99.90
4566;DHT22;2295;51.050;14.608;2022-12-18T03:37:52;-6.60;99.90
4566;DHT22;2295;51.050;14.608;2022-12-18T03:40:43;-6.70;99.90
4566;DHT22;2295;51.050;14.608;2022-12-18T03:43:35;-6.70;99.90
4566;DHT22;2295;51.050;14.608;2022-12-18T03:46:15;-6.70;99.90
4566;DHT22;2295;51.050;14.608;2022-12-18T03:48:55;-6.70;99.90
4566;DHT22;2295;51.050;14.608;2022-12-18T03:51:36;-6.70;99.90
4566;DHT22;2295;51.050;14.608;2022-12-18T03:54:07;-6.70;99.90
4566;DHT22;2295;51.050;14.608;2022-12-18T03:56:40;-6.70;99.90
4566;DHT22;2295;51.050;14.608;2022-12-18T03:59:12;-6.70;99.90
4566;DHT22;2295;51.050;14.608;2022-12-18T04:01:49;-6.80;99.90
4566;DHT22;2295;51.050;14.608;2022-12-18T04:04:56;-6.80;99.90
4566;DHT22;2295;51.050;14.608;2022-12-18T04:08:06;-6.80;99.90
4566;DHT22;2295;51.050;14.608;2022-12-18T04:11:08;-6.80;99.90
4566;DHT22;2295;51.050;14.608;2022-12-18T04:14:12;-6.80;99.90
4566;DHT22;2295;51.050;14.608;2022-12-18T04:17:14;-6.80;99.90
4566;DHT22;2295;51.050;14.608;2022-12-18T04:20:28;-6.80;99.90
4566;DHT22;2295;51.050;14.608;2022-12-18T04:23:24;-6.80;99.90
4566;DHT22;2295;51.050;14.608;2022-12-18T04:26:28;-6.80;99.90
4566;DHT22;2295;51.050;14.608;2022-12-18T04:28:56;-6.80;99.90
4566;DHT22;2295;51.050;14.608;2022-12-18T04:31:25;-6.80;99.90
4566;DHT22;2295;51.050;14.608;2022-12-18T04:33:53;-6.80;99.90
4566;DHT22;2295;51.050;14.608;2022-12-18T04:36:22;-6.80;99.90
4566;DHT22;2295;51.050;14.608;2022-12-18T04:38:52;-6.70;99.90
4566;DHT22;2295;51.050;14.608;2022-12-18T04:41:21;-6.70;99.90
4566;DHT22;2295;51.050;14.608;2022-12-18T04:43:51;-6.70;99.90
4566;DHT22;2295;51.050;14.608;2022-12-18T04:46:19;-6.70;99.90
4566;DHT22;2295;51.050;14.608;2022-12-18T04:48:47;-6.70;99.90
4566;DHT22;2295;51.050;14.608;2022-12-18T04:51:15;-6.70;99.90
4566;DHT22;2295;51.050;14.608;2022-12-18T04:53:51;-6.70;99.90
4566;DHT22;2295;51.050;14.608;2022-12-18T04:56:20;-6.70;99.90
4566;DHT22;2295;51.050;14.608;2022-12-18T04:58:48;-6.70;99.90
4566;DHT22;2295;51.050;14.608;2022-12-18T05:01:18;-6.70;99.90
4566;DHT22;2295;51.050;14.608;2022-12-18T05:03:47;-6.60;99.90
4566;DHT22;2295;51.050;14.608;2022-12-18T05:06:15;-6.60;99.90
4566;DHT22;2295;51.050;14.608;2022-12-18T05:08:43;-6.60;99.90
4566;DHT22;2295;51.050;14.608;2022-12-18T05:11:13;-6.60;99.90
4566;DHT22;2295;51.050;14.608;2022-12-18T05:13:43;-6.50;99.90
4566;DHT22;2295;51.050;14.608;2022-12-18T05:16:11;-6.50;99.90
4566;DHT22;2295;51.050;14.608;2022-12-18T05:18:41;-6.50;99.90
4566;DHT22;2295;51.050;14.608;2022-12-18T05:21:10;-6.50;99.90
4566;DHT22;2295;51.050;14.608;2022-12-18T05:23:38;-6.50;99.90
4566;DHT22;2295;51.050;14.608;2022-12-18T05:26:14;-6.50;99.90
4566;DHT22;2295;51.050;14.608;2022-12-18T05:28:43;-6.50;99.90
4566;DHT22;2295;51.050;14.608;2022-12-18T05:31:12;-6.50;99.90
4566;DHT22;2295;51.050;14.608;2022-12-18T05:33:42;-6.50;99.90
4566;DHT22;2295;51.050;14.608;2022-12-18T05:36:10;-6.50;99.90
4566;DHT22;2295;51.050;14.608;2022-12-18T05:38:39;-6.50;99.90
4566;DHT22;2295;51.050;14.608;2022-12-18T05:41:08;-6.50;99.90
4566;DHT22;2295;51.050;14.608;2022-12-18T05:43:37;-6.50;99.90
4566;DHT22;2295;51.050;14.608;2022-12-18T05:46:08;-6.50;99.90
4566;DHT22;2295;51.050;14.608;2022-12-18T05:48:36;-6.50;99.90
4566;DHT22;2295;51.050;14.608;2022-12-18T05:51:08;-6.50;99.90
4566;DHT22;2295;51.050;14.608;2022-12-18T05:53:37;-6.50;99.90
4566;DHT22;2295;51.050;14.608;2022-12-18T05:56:11;-6.50;99.90
4566;DHT22;2295;51.050;14.608;2022-12-18T05:58:39;-6.60;99.90
4566;DHT22;2295;51.050;14.608;2022-12-18T06:01:10;-6.60;99.90
4566;DHT22;2295;51.050;14.608;2022-12-18T06:03:39;-6.60;99.90
4566;DHT22;2295;51.050;14.608;2022-12-18T06:06:17;-6.60;99.90
4566;DHT22;2295;51.050;14.608;2022-12-18T06:08:46;-6.60;99.90
4566;DHT22;2295;51.050;14.608;2022-12-18T06:11:17;-6.70;99.90
4566;DHT22;2295;51.050;14.608;2022-12-18T06:13:46;-6.70;99.90
4566;DHT22;2295;51.050;14.608;2022-12-18T06:16:14;-6.70;99.90
4566;DHT22;2295;51.050;14.608;2022-12-18T06:18:42;-6.70;99.90
4566;DHT22;2295;51.050;14.608;2022-12-18T06:21:11;-6.60;99.90
4566;DHT22;2295;51.050;14.608;2022-12-18T06:23:40;-6.60;99.90
4566;DHT22;2295;51.050;14.608;2022-12-18T06:26:10;-6.70;99.90
4566;DHT22;2295;51.050;14.608;2022-12-18T06:28:39;-6.70;99.90
4566;DHT22;2295;51.050;14.608;2022-12-18T06:31:08;-6.70;99.90
4566;DHT22;2295;51.050;14.608;2022-12-18T06:33:37;-6.70;99.90
4566;DHT22;2295;51.050;14.608;2022-12-18T06:36:08;-6.70;99.90
4566;DHT22;2295;51.050;14.608;2022-12-18T06:38:38;-6.70;99.90
4566;DHT22;2295;51.050;14.608;2022-12-18T06:41:09;-6.60;99.90
4566;DHT22;2295;51.050;14.608;2022-12-18T06:43:38;-6.70;99.90
4566;DHT22;2295;51.050;14.608;2022-12-18T06:46:07;-6.70;99.90
4566;DHT22;2295;51.050;14.608;2022-12-18T06:48:36;-6.70;99.90
4566;DHT22;2295;51.050;14.608;2022-12-18T06:51:04;-6.60;99.90
4566;DHT22;2295;51.050;14.608;2022-12-18T06:53:33;-6.60;99.90
4566;DHT22;2295;51.050;14.608;2022-12-18T06:56:02;-6.60;99.90
4566;DHT22;2295;51.050;14.608;2022-12-18T06:58:37;-6.60;99.90
4566;DHT22;2295;51.050;14.608;2022-12-18T07:01:07;-6.50;99.90
4566;DHT22;2295;51.050;14.608;2022-12-18T07:03:36;-6.50;99.90
4566;DHT22;2295;51.050;14.608;2022-12-18T07:06:05;-6.50;99.90
4566;DHT22;2295;51.050;14.608;2022-12-18T07:08:34;-6.50;99.90
4566;DHT22;2295;51.050;14.608;2022-12-18T07:11:04;-6.50;99.90
4566;DHT22;2295;51.050;14.608;2022-12-18T07:13:32;-6.50;99.90
4566;DHT22;2295;51.050;14.608;2022-12-18T07:16:06;-6.50;99.90
4566;DHT22;2295;51.050;14.608;2022-12-18T07:18:44;-6.40;99.90
4566;DHT22;2295;51.050;14.608;2022-12-18T07:21:17;-6.40;99.90
4566;DHT22;2295;51.050;14.608;2022-12-18T07:23:45;-6.50;99.90
4566;DHT22;2295;51.050;14.608;2022-12-18T07:26:17;-6.40;99.90
4566;DHT22;2295;51.050;14.608;2022-12-18T07:28:46;-6.40;99.90
4566;DHT22;2295;51.050;14.608;2022-12-18T07:31:18;-6.30;99.90
4566;DHT22;2295;51.050;14.608;2022-12-18T07:33:50;-6.30;99.90
4566;DHT22;2295;51.050;14.608;2022-12-18T07:36:19;-6.30;99.90
4566;DHT22;2295;51.050;14.608;2022-12-18T07:38:50;-6.20;99.90
4566;DHT22;2295;51.050;14.608;2022-12-18T07:41:21;-6.20;99.90
4566;DHT22;2295;51.050;14.608;2022-12-18T07:43:52;-6.10;99.90
4566;DHT22;2295;51.050;14.608;2022-12-18T07:46:22;-6.10;99.90
4566;DHT22;2295;51.050;14.608;2022-12-18T07:48:50;-6.00;99.90
4566;DHT22;2295;51.050;14.608;2022-12-18T07:51:22;-6.00;99.90
4566;DHT22;2295;51.050;14.608;2022-12-18T07:53:50;-6.00;99.90
4566;DHT22;2295;51.050;14.608;2022-12-18T07:56:18;-6.00;99.90
4566;DHT22;2295;51.050;14.608;2022-12-18T07:58:56;-5.90;99.90
4566;DHT22;2295;51.050;14.608;2022-12-18T08:01:29;-5.90;99.90
4566;DHT22;2295;51.050;14.608;2022-12-18T08:03:57;-5.90;99.90
4566;DHT22;2295;51.050;14.608;2022-12-18T08:06:26;-5.90;99.90
4566;DHT22;2295;51.050;14.608;2022-12-18T08:08:55;-5.90;99.90
4566;DHT22;2295;51.050;14.608;2022-12-18T08:11:25;-5.80;99.90
4566;DHT22;2295;51.050;14.608;2022-12-18T08:13:54;-5.80;99.90
4566;DHT22;2295;51.050;14.608;2022-12-18T08:16:26;-5.80;99.90
4566;DHT22;2295;51.050;14.608;2022-12-18T08:18:56;-5.70;99.90
4566;DHT22;2295;51.050;14.608;2022-12-18T08:21:26;-5.70;99.90
4566;DHT22;2295;51.050;14.608;2022-12-18T08:23:59;-5.60;99.90
4566;DHT22;2295;51.050;14.608;2022-12-18T08:26:29;-5.60;99.90
4566;DHT22;2295;51.050;14.608;2022-12-18T08:28:59;-5.50;99.90
4566;DHT22;2295;51.050;14.608;2022-12-18T08:31:29;-5.50;99.90
4566;DHT22;2295;51.050;14.608;2022-12-18T08:33:59;-5.50;99.90
4566;DHT22;2295;51.050;14.608;2022-12-18T08:36:28;-5.50;99.90
4566;DHT22;2295;51.050;14.608;2022-12-18T08:38:56;-5.50;99.90
4566;DHT22;2295;51.050;14.608;2022-12-18T08:41:26;-5.40;99.90
4566;DHT22;2295;51.050;14.608;2022-12-18T08:43:55;-5.40;99.90
4566;DHT22;2295;51.050;14.608;2022-12-18T08:46:41;-5.30;99.90
4566;DHT22;2295;51.050;14.608;2022-12-18T08:49:12;-5.30;99.90
4566;DHT22;2295;51.050;14.608;2022-12-18T08:51:40;-5.30;99.90
4566;DHT22;2295;51.050;14.608;2022-12-18T08:54:11;-5.20;99.90
4566;DHT22;2295;51.050;14.608;2022-12-18T08:56:39;-5.20;99.90
4566;DHT22;2295;51.050;14.608;2022-12-18T08:59:08;-5.30;99.90
4566;DHT22;2295;51.050;14.608;2022-12-18T09:01:45;-5.20;99.90
4566;DHT22;2295;51.050;14.608;2022-12-18T09:04:15;-5.10;99.90
4566;DHT22;2295;51.050;14.608;2022-12-18T09:06:47;-5.10;99.90
4566;DHT22;2295;51.050;14.608;2022-12-18T09:09:15;-5.10;99.90
4566;DHT22;2295;51.050;14.608;2022-12-18T09:11:46;-5.10;99.90
4566;DHT22;2295;51.050;14.608;2022-12-18T09:14:17;-5.10;99.90
4566;DHT22;2295;51.050;14.608;2022-12-18T09:16:45;-5.00;99.90
4566;DHT22;2295;51.050;14.608;2022-12-18T09:19:15;-5.00;99.90
4566;DHT22;2295;51.050;14.608;2022-12-18T09:21:43;-5.10;99.90
4566;DHT22;2295;51.050;14.608;2022-12-18T09:24:17;-5.30;99.90
4566;DHT22;2295;51.050;14.608;2022-12-18T09:26:45;-5.20;99.90
4566;DHT22;2295;51.050;14.608;2022-12-18T09:29:14;-5.20;99.90
4566;DHT22;2295;51.050;14.608;2022-12-18T09:31:45;-5.20;99.90
4566;DHT22;2295;51.050;14.608;2022-12-18T09:34:15;-5.20;99.90
4566;DHT22;2295;51.050;14.608;2022-12-18T09:36:47;-5.20;99.90
4566;DHT22;2295;51.050;14.608;2022-12-18T09:39:16;-5.30;99.90
4566;DHT22;2295;51.050;14.608;2022-12-18T09:41:51;-5.20;99.90
4566;DHT22;2295;51.050;14.608;2022-12-18T09:44:24;-5.30;99.90
4566;DHT22;2295;51.050;14.608;2022-12-18T09:47:12;-5.30;99.90
4566;DHT22;2295;51.050;14.608;2022-12-18T09:49:45;-5.30;99.90
4566;DHT22;2295;51.050;14.608;2022-12-18T09:52:17;-5.30;99.90
4566;DHT22;2295;51.050;14.608;2022-12-18T09:54:55;-5.20;99.90
4566;DHT22;2295;51.050;14.608;2022-12-18T09:57:25;-5.20;99.90
4566;DHT22;2295;51.050;14.608;2022-12-18T09:59:56;-5.10;99.90
4566;DHT22;2295;51.050;14.608;2022-12-18T10:02:26;-5.00;99.90
4566;DHT22;2295;51.050;14.608;2022-12-18T10:05:03;-4.80;99.90
4566;DHT22;2295;51.050;14.608;2022-12-18T10:07:47;-4.70;99.90
4566;DHT22;2295;51.050;14.608;2022-12-18T10:10:26;-4.70;99.90
4566;DHT22;2295;51.050;14.608;2022-12-18T10:13:03;-4.80;99.90
4566;DHT22;2295;51.050;14.608;2022-12-18T10:15:45;-4.80;99.90
4566;DHT22;2295;51.050;14.608;2022-12-18T10:18:24;-4.90;99.90
4566;DHT22;2295;51.050;14.608;2022-12-18T10:20:56;-5.10;99.90
4566;DHT22;2295;51.050;14.608;2022-12-18T10:23:30;-5.20;99.90
4566;DHT22;2295;51.050;14.608;2022-12-18T10:26:03;-5.20;99.90
4566;DHT22;2295;51.050;14.608;2022-12-18T10:28:33;-5.20;99.90
4566;DHT22;2295;51.050;14.608;2022-12-18T10:31:07;-5.10;99.90
4566;DHT22;2295;51.050;14.608;2022-12-18T10:33:40;-5.00;99.90
4566;DHT22;2295;51.050;14.608;2022-12-18T10:36:10;-5.00;99.90
4566;DHT22;2295;51.050;14.608;2022-12-18T10:38:39;-5.00;99.90
4566;DHT22;2295;51.050;14.608;2022-12-18T10:41:23;-5.00;99.90
4566;DHT22;2295;51.050;14.608;2022-12-18T10:44:14;-5.00;99.90
4566;DHT22;2295;51.050;14.608;2022-12-18T10:46:44;-5.00;99.90
4566;DHT22;2295;51.050;14.608;2022-12-18T10:49:26;-5.00;99.90
4566;DHT22;2295;51.050;14.608;2022-12-18T10:52:14;-5.10;99.90
4566;DHT22;2295;51.050;14.608;2022-12-18T10:54:48;-5.00;99.90
4566;DHT22;2295;51.050;14.608;2022-12-18T10:57:29;-5.00;99.90
4566;DHT22;2295;51.050;14.608;2022-12-18T11:00:00;-5.10;99.90
4566;DHT22;2295;51.050;14.608;2022-12-18T11:02:35;-5.10;99.90
4566;DHT22;2295;51.050;14.608;2022-12-18T11:05:23;-5.10;99.90
4566;DHT22;2295;51.050;14.608;2022-12-18T11:07:56;-5.10;99.90
4566;DHT22;2295;51.050;14.608;2022-12-18T11:10:28;-5.00;99.90
4566;DHT22;2295;51.050;14.608;2022-12-18T11:13:10;-4.90;99.90
4566;DHT22;2295;51.050;14.608;2022-12-18T11:15:40;-5.00;99.90
4566;DHT22;2295;51.050;14.608;2022-12-18T11:18:17;-4.90;99.90
4566;DHT22;2295;51.050;14.608;2022-12-18T11:20:59;-4.90;99.90
4566;DHT22;2295;51.050;14.608;2022-12-18T11:23:29;-4.90;99.90
4566;DHT22;2295;51.050;14.608;2022-12-18T11:25:59;-4.90;99.90
4566;DHT22;2295;51.050;14.608;2022-12-18T11:28:36;-4.90;99.90
4566;DHT22;2295;51.050;14.608;2022-12-18T11:31:20;-4.90;99.90
4566;DHT22;2295;51.050;14.608;2022-12-18T11:33:57;-5.00;99.90
4566;DHT22;2295;51.050;14.608;2022-12-18T11:36:49;-5.00;99.90
4566;DHT22;2295;51.050;14.608;2022-12-18T11:39:24;-5.00;99.90
4566;DHT22;2295;51.050;14.608;2022-12-18T11:42:01;-5.00;99.90
4566;DHT22;2295;51.050;14.608;2022-12-18T11:44:43;-5.10;99.90
4566;DHT22;2295;51.050;14.608;2022-12-18T11:47:21;-5.10;99.90
4566;DHT22;2295;51.050;14.608;2022-12-18T11:49:53;-5.10;99.90
4566;DHT22;2295;51.050;14.608;2022-12-18T11:52:27;-5.10;99.90
4566;DHT22;2295;51.050;14.608;2022-12-18T11:55:09;-5.10;99.90
4566;DHT22;2295;51.050;14.608;2022-12-18T11:57:44;-5.20;99.90
4566;DHT22;2295;51.050;14.608;2022-12-18T12:00:20;-5.10;99.90
4566;DHT22;2295;51.050;14.608;2022-12-18T12:03:18;-5.10;99.90
4566;DHT22;2295;51.050;14.608;2022-12-18T12:06:00;-5.10;99.90
4566;DHT22;2295;51.050;14.608;2022-12-18T12:08:49;-5.10;99.90
4566;DHT22;2295;51.050;14.608;2022-12-18T12:11:27;-5.10;99.90
4566;DHT22;2295;51.050;14.608;2022-12-18T12:14:17;-5.10;99.90
4566;DHT22;2295;51.050;14.608;2022-12-18T12:16:56;-5.00;99.90
4566;DHT22;2295;51.050;14.608;2022-12-18T12:19:34;-5.00;99.90
4566;DHT22;2295;51.050;14.608;2022-12-18T12:22:08;-4.80;99.90
4566;DHT22;2295;51.050;14.608;2022-12-18T12:24:50;-4.80;99.90
4566;DHT22;2295;51.050;14.608;2022-12-18T12:27:28;-4.80;99.90
4566;DHT22;2295;51.050;14.608;2022-12-18T12:30:04;-4.80;99.90
4566;DHT22;2295;51.050;14.608;2022-12-18T12:32:50;-4.80;99.90
4566;DHT22;2295;51.050;14.608;2022-12-18T12:35:29;-4.80;99.90
4566;DHT22;2295;51.050;14.608;2022-12-18T12:38:06;-4.80;99.90
4566;DHT22;2295;51.050;14.608;2022-12-18T12:40:39;-4.90;99.90
4566;DHT22;2295;51.050;14.608;2022-12-18T12:43:34;-4.90;99.90
4566;DHT22;2295;51.050;14.608;2022-12-18T12:46:05;-4.90;99.90
4566;DHT22;2295;51.050;14.608;2022-12-18T12:48:40;-4.80;99.90
4566;DHT22;2295;51.050;14.608;2022-12-18T12:51:15;-4.90;99.90
4566;DHT22;2295;51.050;14.608;2022-12-18T12:53:45;-4.90;99.90
4566;DHT22;2295;51.050;14.608;2022-12-18T12:56:15;-4.90;99.90
4566;DHT22;2295;51.050;14.608;2022-12-18T12:58:56;-4.90;99.90
4566;DHT22;2295;51.050;14.608;2022-12-18T13:01:32;-5.00;99.90
4566;DHT22;2295;51.050;14.608;2022-12-18T13:04:11;-5.00;99.90
4566;DHT22;2295;51.050;14.608;2022-12-18T13:06:46;-5.00;99.90
4566;DHT22;2295;51.050;14.608;2022-12-18T13:09:16;-5.00;99.90
4566;DHT22;2295;51.050;14.608;2022-12-18T13:11:47;-5.10;99.90
4566;DHT22;2295;51.050;14.608;2022-12-18T13:14:36;-5.10;99.90
4566;DHT22;2295;51.050;14.608;2022-12-18T13:17:28;-5.20;99.90
4566;DHT22;2295;51.050;14.608;2022-12-18T13:20:14;-5.30;99.90
4566;DHT22;2295;51.050;14.608;2022-12-18T13:22:51;-5.40;99.90
4566;DHT22;2295;51.050;14.608;2022-12-18T13:25:29;-5.40;99.90
4566;DHT22;2295;51.050;14.608;2022-12-18T13:28:07;-5.50;99.90
4566;DHT22;2295;51.050;14.608;2022-12-18T13:30:50;-5.50;99.90
4566;DHT22;2295;51.050;14.608;2022-12-18T13:33:40;-5.50;99.90
4566;DHT22;2295;51.050;14.608;2022-12-18T13:36:31;-5.50;99.90
4566;DHT22;2295;51.050;14.608;2022-12-18T13:42:39;-5.50;99.90
4566;DHT22;2295;51.050;14.608;2022-12-18T13:45:43;-5.50;99.90
4566;DHT22;2295;51.050;14.608;2022-12-18T13:48:23;-5.60;99.90
4566;DHT22;2295;51.050;14.608;2022-12-18T13:50:58;-5.70;99.90
4566;DHT22;2295;51.050;14.608;2022-12-18T13:53:29;-5.70;99.90
4566;DHT22;2295;51.050;14.608;2022-12-18T13:55:59;-5.80;99.90
4566;DHT22;2295;51.050;14.608;2022-12-18T13:58:28;-5.80;99.90
4566;DHT22;2295;51.050;14.608;2022-12-18T14:00:56;-5.90;99.90
4566;DHT22;2295;51.050;14.608;2022-12-18T14:03:28;-6.00;99.90
4566;DHT22;2295;51.050;14.608;2022-12-18T14:06:03;-6.00;99.90
4566;DHT22;2295;51.050;14.608;2022-12-18T14:08:36;-6.00;99.90
4566;DHT22;2295;51.050;14.608;2022-12-18T14:11:07;-6.00;99.90
4566;DHT22;2295;51.050;14.608;2022-12-18T14:13:47;-6.10;99.90
4566;DHT22;2295;51.050;14.608;2022-12-18T14:16:18;-6.10;99.90
4566;DHT22;2295;51.050;14.608;2022-12-18T14:18:52;-6.10;99.90
4566;DHT22;2295;51.050;14.608;2022-12-18T14:21:48;-6.10;99.90
4566;DHT22;2295;51.050;14.608;2022-12-18T14:24:20;-6.10;99.90
4566;DHT22;2295;51.050;14.608;2022-12-18T14:26:50;-6.10;99.90
4566;DHT22;2295;51.050;14.608;2022-12-18T14:29:21;-6.10;99.90
4566;DHT22;2295;51.050;14.608;2022-12-18T14:32:07;-6.10;99.90
4566;DHT22;2295;51.050;14.608;2022-12-18T14:34:45;-6.20;99.90
4566;DHT22;2295;51.050;14.608;2022-12-18T14:37:17;-6.40;99.90
4566;DHT22;2295;51.050;14.608;2022-12-18T14:39:56;-6.50;99.90
4566;DHT22;2295;51.050;14.608;2022-12-18T14:42:25;-6.60;99.90
4566;DHT22;2295;51.050;14.608;2022-12-18T14:48:12;-6.80;99.90
4566;DHT22;2295;51.050;14.608;2022-12-18T14:51:01;-6.90;99.90
4566;DHT22;2295;51.050;14.608;2022-12-18T14:53:36;-6.90;99.90
4566;DHT22;2295;51.050;14.608;2022-12-18T14:56:16;-7.00;99.90
4566;DHT22;2295;51.050;14.608;2022-12-18T14:58:49;-7.10;99.90
4566;DHT22;2295;51.050;14.608;2022-12-18T15:01:24;-7.30;99.90
4566;DHT22;2295;51.050;14.608;2022-12-18T15:03:57;-7.30;99.90
4566;DHT22;2295;51.050;14.608;2022-12-18T15:06:33;-7.30;99.90
4566;DHT22;2295;51.050;14.608;2022-12-18T15:09:03;-7.30;99.90
4566;DHT22;2295;51.050;14.608;2022-12-18T15:11:43;-7.30;99.90
4566;DHT22;2295;51.050;14.608;2022-12-18T15:14:23;-7.40;99.90
4566;DHT22;2295;51.050;14.608;2022-12-18T15:16:53;-7.30;99.90
4566;DHT22;2295;51.050;14.608;2022-12-18T15:19:26;-7.30;99.90
4566;DHT22;2295;51.050;14.608;2022-12-18T15:22:01;-7.40;99.90
4566;DHT22;2295;51.050;14.608;2022-12-18T15:24:33;-7.40;99.90
4566;DHT22;2295;51.050;14.608;2022-12-18T15:27:01;-7.50;99.90
4566;DHT22;2295;51.050;14.608;2022-12-18T15:29:29;-7.50;99.90
4566;DHT22;2295;51.050;14.608;2022-12-18T15:32:00;-7.60;99.90
4566;DHT22;2295;51.050;14.608;2022-12-18T15:34:28;-7.70;99.90
4566;DHT22;2295;51.050;14.608;2022-12-18T15:36:57;-7.80;99.90
4566;DHT22;2295;51.050;14.608;2022-12-18T15:39:29;-7.80;99.90
4566;DHT22;2295;51.050;14.608;2022-12-18T15:42:08;-7.90;99.90
4566;DHT22;2295;51.050;14.608;2022-12-18T15:44:54;-7.90;99.90
4566;DHT22;2295;51.050;14.608;2022-12-18T15:47:25;-7.90;99.90
4566;DHT22;2295;51.050;14.608;2022-12-18T15:49:53;-7.90;99.90
4566;DHT22;2295;51.050;14.608;2022-12-18T15:52:21;-7.90;99.90
4566;DHT22;2295;51.050;14.608;2022-12-18T15:54:54;-8.00;99.90
4566;DHT22;2295;51.050;14.608;2022-12-18T15:57:40;-8.00;99.90
4566;DHT22;2295;51.050;14.608;2022-12-18T16:00:12;-8.10;99.90
4566;DHT22;2295;51.050;14.608;2022-12-18T16:02:40;-8.20;99.90
4566;DHT22;2295;51.050;14.608;2022-12-18T16:05:14;-8.20;99.90
4566;DHT22;2295;51.050;14.608;2022-12-18T16:07:44;-8.20;99.90
4566;DHT22;2295;51.050;14.608;2022-12-18T16:10:23;-8.20;99.90
4566;DHT22;2295;51.050;14.608;2022-12-18T16:12:52;-8.10;99.90
4566;DHT22;2295;51.050;14.608;2022-12-18T16:15:20;-8.20;99.90
4566;DHT22;2295;51.050;14.608;2022-12-18T16:17:54;-8.00;99.90
4566;DHT22;2295;51.050;14.608;2022-12-18T16:20:22;-8.10;99.90
4566;DHT22;2295;51.050;14.608;2022-12-18T16:22:53;-8.10;99.90
4566;DHT22;2295;51.050;14.608;2022-12-18T16:25:24;-8.10;99.90
4566;DHT22;2295;51.050;14.608;2022-12-18T16:27:55;-8.10;99.90
4566;DHT22;2295;51.050;14.608;2022-12-18T16:30:25;-8.00;99.90
4566;DHT22;2295;51.050;14.608;2022-12-18T16:32:58;-8.10;99.90
4566;DHT22;2295;51.050;14.608;2022-12-18T16:35:27;-8.20;99.90
4566;DHT22;2295;51.050;14.608;2022-12-18T16:37:55;-8.20;99.90
4566;DHT22;2295;51.050;14.608;2022-12-18T16:40:25;-8.20;99.90
4566;DHT22;2295;51.050;14.608;2022-12-18T16:43:02;-8.10;99.90
4566;DHT22;2295;51.050;14.608;2022-12-18T16:45:30;-8.20;99.90
4566;DHT22;2295;51.050;14.608;2022-12-18T16:48:03;-8.30;99.90
4566;DHT22;2295;51.050;14.608;2022-12-18T16:50:31;-8.30;99.90